Time;durP1;ratioP1;P1;durP2;ratioP2;P2;SDS_P1;SDS_P2;PMS_P1;PMS_P2;Temp;Humidity;BMP_temperature;BMP_pressure;BME280_temperature;BME280_humidity;BME280_pressure;Samples;Min_cycle;Max_cycle;Signal;HPM_P1;HPM_P2
2024/01/28 00:02:21;;;;;;;19.58;7.32;;;7.30;95.40;;;;;;5057614;28;20032;-77
2024/01/28 00:04:47;;;;;;;21.42;7.50;;;7.20;95.50;;;;;;5074208;28;20187;-77
2024/01/28 00:07:12;;;;;;;20.30;6.95;;;7.00;95.60;;;;;;5074244;28;20170;-76
2024/01/28 00:09:38;;;;;;;18.98;6.70;;;7.00;95.80;;;;;;5073397;28;20417;-76
2024/01/28 00:12:04;;;;;;;18.02;6.70;;;6.90;95.90;;;;;;5074827;28;20480;-75
2024/01/28 00:14:30;;;;;;;20.23;7.75;;;7.00;95.90;;;;;;5075057;28;20025;-76
2024/01/28 00:16:55;;;;;;;19.90;8.20;;;7.00;95.90;;;;;;5073991;28;20044;-76
2024/01/28 00:19:21;;;;;;;21.27;8.27;;;7.00;96.00;;;;;;5057040;28;20392;-76
2024/01/28 00:21:47;;;;;;;17.30;7.07;;;7.00;96.00;;;;;;5073184;28;20500;-75
2024/01/28 00:24:12;;;;;;;23.38;7.97;;;7.00;96.00;;;;;;5075080;28;20044;-75
2024/01/28 00:26:40;;;;;;;17.10;7.05;;;7.00;96.00;;;;;;5056813;28;20033;-75
2024/01/28 00:29:06;;;;;;;20.45;7.50;;;7.00;96.00;;;;;;5056920;28;20029;-76
2024/01/28 00:31:32;;;;;;;22.90;8.90;;;7.00;96.10;;;;;;5073585;28;20039;-75
2024/01/28 00:33:59;;;;;;;20.15;7.57;;;7.00;96.10;;;;;;5073720;28;20108;-75
2024/01/28 00:36:24;;;;;;;19.75;8.10;;;7.00;96.00;;;;;;5074901;28;20079;-75
2024/01/28 00:38:50;;;;;;;17.85;7.50;;;7.00;96.10;;;;;;5057106;28;20064;-75
2024/01/28 00:41:29;;;;;;;21.98;8.23;;;7.00;96.10;;;;;;5074745;28;20537;-75
2024/01/28 00:43:55;;;;;;;19.85;7.38;;;7.00;96.10;;;;;;5073382;28;20025;-75
2024/01/28 00:46:24;;;;;;;28.05;7.65;;;6.90;96.10;;;;;;5074448;28;20437;-75
2024/01/28 00:48:49;;;;;;;20.35;7.28;;;6.80;96.10;;;;;;5073416;28;20037;-75
2024/01/28 00:51:15;;;;;;;18.40;6.50;;;6.70;96.20;;;;;;5074282;28;20107;-75
2024/01/28 00:53:41;;;;;;;24.55;6.85;;;6.60;96.30;;;;;;5074594;28;20027;-75
2024/01/28 00:56:07;;;;;;;16.42;7.10;;;6.50;96.40;;;;;;5072715;28;20416;-76
2024/01/28 00:58:33;;;;;;;18.35;7.25;;;6.50;96.50;;;;;;5074237;28;20086;-75
2024/01/28 01:00:59;;;;;;;16.55;6.85;;;6.30;96.60;;;;;;5074419;28;20469;-75
2024/01/28 01:03:25;;;;;;;19.15;7.13;;;6.30;96.80;;;;;;5073114;28;20066;-76
2024/01/28 01:05:51;;;;;;;21.95;7.05;;;6.30;96.90;;;;;;5056388;28;20063;-76
2024/01/28 01:08:16;;;;;;;13.43;6.07;;;6.30;97.00;;;;;;5074636;28;20035;-75
2024/01/28 01:10:42;;;;;;;16.38;7.05;;;6.30;97.10;;;;;;5072499;28;20036;-76
2024/01/28 01:13:08;;;;;;;21.45;7.32;;;6.30;97.10;;;;;;5072715;28;20025;-76
2024/01/28 01:15:33;;;;;;;16.20;6.55;;;6.40;97.10;;;;;;5073953;28;20129;-76
2024/01/28 01:17:59;;;;;;;23.23;6.95;;;6.40;97.00;;;;;;5072616;28;20032;-77
2024/01/28 01:20:25;;;;;;;20.23;7.43;;;6.30;97.00;;;;;;5073997;28;20468;-75
2024/01/28 01:22:51;;;;;;;21.85;7.13;;;6.20;97.10;;;;;;5072183;28;20131;-75
2024/01/28 01:25:17;;;;;;;16.30;6.53;;;6.20;97.20;;;;;;5073708;28;20032;-72
2024/01/28 01:27:45;;;;;;;20.50;7.20;;;6.20;97.20;;;;;;5073501;28;20028;-72
2024/01/28 01:30:11;;;;;;;19.95;6.13;;;6.20;97.20;;;;;;5072347;28;20055;-76
2024/01/28 01:32:38;;;;;;;17.77;6.85;;;6.20;97.30;;;;;;5073766;28;20107;-76
2024/01/28 01:35:04;;;;;;;19.10;7.00;;;6.20;97.20;;;;;;5072605;28;20057;-75
2024/01/28 01:37:30;;;;;;;18.15;6.47;;;6.30;97.30;;;;;;5073235;28;20029;-76
2024/01/28 01:39:56;;;;;;;17.60;6.28;;;6.20;97.30;;;;;;5073542;28;20033;-76
2024/01/28 01:42:21;;;;;;;17.67;7.13;;;6.20;97.30;;;;;;5072573;28;20161;-75
2024/01/28 01:44:47;;;;;;;15.60;6.10;;;6.20;97.20;;;;;;5071949;28;20029;-76
2024/01/28 01:47:12;;;;;;;20.90;6.45;;;6.20;97.30;;;;;;5072208;28;20353;-75
2024/01/28 01:49:38;;;;;;;16.38;6.32;;;6.20;97.30;;;;;;5055691;28;20032;-76
2024/01/28 01:52:06;;;;;;;19.83;6.03;;;6.20;97.30;;;;;;5072179;28;20020;-76
2024/01/28 01:54:32;;;;;;;17.92;6.57;;;6.20;97.50;;;;;;5072222;28;20237;-76
2024/01/28 01:56:58;;;;;;;20.08;6.07;;;6.20;97.20;;;;;;5071958;28;20075;-76
2024/01/28 01:59:24;;;;;;;18.33;6.22;;;6.20;97.30;;;;;;5072349;28;20142;-76
2024/01/28 02:01:54;;;;;;;16.98;5.50;;;6.20;97.20;;;;;;5075670;28;20066;-76
2024/01/28 02:04:20;;;;;;;16.85;6.47;;;6.10;97.20;;;;;;5075095;28;20029;-76
2024/01/28 02:06:48;;;;;;;17.45;6.20;;;6.10;97.40;;;;;;5073978;28;20029;-75
2024/01/28 02:09:14;;;;;;;19.17;6.18;;;6.10;97.40;;;;;;5074182;28;20119;-76
2024/01/28 02:11:41;;;;;;;16.17;5.60;;;6.10;97.40;;;;;;5055816;28;20102;-76
2024/01/28 02:14:06;;;;;;;18.92;5.72;;;6.10;97.40;;;;;;5072036;28;20392;-75
2024/01/28 02:16:32;;;;;;;15.75;5.88;;;6.20;97.40;;;;;;5073023;28;20033;-75
2024/01/28 02:18:57;;;;;;;14.85;5.93;;;6.20;97.30;;;;;;5073060;28;20143;-75
2024/01/28 02:21:23;;;;;;;15.82;6.00;;;6.20;97.50;;;;;;5072337;28;20055;-75
2024/01/28 02:23:49;;;;;;;17.85;5.68;;;6.20;97.20;;;;;;5072855;28;20039;-75
2024/01/28 02:26:14;;;;;;;17.38;5.95;;;6.20;97.50;;;;;;5072705;28;20060;-74
2024/01/28 02:28:40;;;;;;;15.27;5.70;;;6.20;97.10;;;;;;5073042;28;20329;-77
2024/01/28 02:31:05;;;;;;;15.40;5.80;;;6.20;97.00;;;;;;5071640;28;20025;-76
2024/01/28 02:33:31;;;;;;;12.95;5.10;;;6.20;97.10;;;;;;5071505;28;20370;-76
2024/01/28 02:35:57;;;;;;;16.73;5.93;;;6.10;97.10;;;;;;5072685;28;20033;-76
2024/01/28 02:38:22;;;;;;;20.15;6.47;;;6.10;97.10;;;;;;5071628;28;20164;-75
2024/01/28 02:40:51;;;;;;;16.45;5.47;;;6.10;97.20;;;;;;5071415;28;20040;-75
2024/01/28 02:43:16;;;;;;;18.48;6.35;;;6.00;97.20;;;;;;5071501;28;20032;-75
2024/01/28 02:45:42;;;;;;;14.45;5.75;;;6.00;97.30;;;;;;5038323;28;20051;-75
2024/01/28 02:48:07;;;;;;;19.88;5.28;;;6.00;97.30;;;;;;5071646;28;20032;-77
2024/01/28 02:50:33;;;;;;;15.90;5.63;;;6.00;97.20;;;;;;5071383;28;20389;-76
2024/01/28 02:52:59;;;;;;;17.60;5.55;;;5.90;97.20;;;;;;5055034;28;20504;-75
2024/01/28 02:55:24;;;;;;;20.38;5.75;;;5.90;97.30;;;;;;5072783;28;20491;-76
2024/01/28 02:57:50;;;;;;;13.20;5.20;;;5.80;97.30;;;;;;5072218;28;20043;-76
2024/01/28 03:00:16;;;;;;;17.40;5.90;;;5.80;97.40;;;;;;5071250;28;20107;-75
2024/01/28 03:02:42;;;;;;;19.45;5.72;;;5.60;97.50;;;;;;5071371;28;20120;-75
2024/01/28 03:05:11;;;;;;;15.50;4.88;;;5.60;97.60;;;;;;5071669;28;20120;-75
2024/01/28 03:07:37;;;;;;;17.05;5.63;;;5.50;97.80;;;;;;5072662;28;20024;-75
2024/01/28 03:10:04;;;;;;;18.38;5.97;;;5.40;97.90;;;;;;5072525;28;20071;-75
2024/01/28 03:12:29;;;;;;;16.33;5.65;;;5.40;97.90;;;;;;5072646;28;20032;-76
2024/01/28 03:14:55;;;;;;;15.27;5.72;;;5.40;98.00;;;;;;5071400;28;20033;-76
2024/01/28 03:17:20;;;;;;;18.55;5.85;;;5.40;98.00;;;;;;5054627;28;20032;-75
2024/01/28 03:19:46;;;;;;;17.10;5.90;;;5.40;98.00;;;;;;5054724;28;20029;-75
2024/01/28 03:22:12;;;;;;;21.23;5.97;;;5.40;98.00;;;;;;5072478;28;20053;-75
2024/01/28 03:24:40;;;;;;;14.35;5.30;;;5.50;98.10;;;;;;5070989;28;20028;-77
2024/01/28 03:27:06;;;;;;;15.00;5.38;;;5.50;98.10;;;;;;5070813;28;20119;-77
2024/01/28 03:29:31;;;;;;;17.77;6.10;;;5.50;98.00;;;;;;5054059;28;20067;-76
2024/01/28 03:31:57;;;;;;;15.60;4.97;;;5.40;98.00;;;;;;5037753;28;20025;-75
2024/01/28 03:34:22;;;;;;;16.92;5.00;;;5.40;98.00;;;;;;5057533;28;20033;-74
2024/01/28 03:36:48;;;;;;;11.35;5.00;;;5.40;98.00;;;;;;5074815;28;20325;-75
2024/01/28 03:39:14;;;;;;;16.58;5.70;;;5.50;98.10;;;;;;5074340;28;20456;-74
2024/01/28 03:41:40;;;;;;;16.60;5.10;;;5.50;98.00;;;;;;5076065;28;20041;-80
2024/01/28 03:44:06;;;;;;;16.45;6.10;;;5.50;98.10;;;;;;5076981;28;20056;-79
2024/01/28 03:46:32;;;;;;;12.43;5.55;;;5.50;98.10;;;;;;5075184;28;20522;-80
2024/01/28 03:49:00;;;;;;;17.15;5.32;;;5.50;98.10;;;;;;5075298;28;20070;-81
2024/01/28 03:51:26;;;;;;;15.50;5.32;;;5.50;98.20;;;;;;5075261;28;20426;-80
2024/01/28 03:53:51;;;;;;;15.73;5.80;;;5.60;98.00;;;;;;5075262;28;20029;-81
2024/01/28 03:56:17;;;;;;;21.77;6.15;;;5.60;98.00;;;;;;5075043;28;20028;-80
2024/01/28 03:58:43;;;;;;;14.20;5.85;;;5.60;98.00;;;;;;5074911;28;20039;-81
2024/01/28 04:01:08;;;;;;;17.42;5.30;;;5.60;98.00;;;;;;5076057;28;20183;-81
2024/01/28 04:03:35;;;;;;;14.88;5.85;;;5.60;97.80;;;;;;5076612;28;20036;-81
2024/01/28 04:06:01;;;;;;;14.10;5.10;;;5.60;97.80;;;;;;5074854;28;20465;-81
2024/01/28 04:08:27;;;;;;;16.52;5.00;;;5.50;97.70;;;;;;5075962;28;20036;-81
2024/01/28 04:10:52;;;;;;;16.00;5.15;;;5.50;97.80;;;;;;5058416;28;20033;-81
2024/01/28 04:13:18;;;;;;;14.13;5.25;;;5.40;97.90;;;;;;5074825;28;20036;-81
2024/01/28 04:15:44;;;;;;;19.33;5.40;;;5.40;97.90;;;;;;5058189;28;20036;-80
2024/01/28 04:18:09;;;;;;;14.50;5.20;;;5.30;97.90;;;;;;5041517;28;20032;-80
2024/01/28 04:20:35;;;;;;;13.55;5.10;;;5.30;98.10;;;;;;5075495;28;20111;-80
2024/01/28 04:23:00;;;;;;;16.52;5.45;;;5.30;98.20;;;;;;5075985;28;20029;-80
2024/01/28 04:25:26;;;;;;;18.73;6.03;;;5.20;98.30;;;;;;5075687;28;20032;-80
2024/01/28 04:27:52;;;;;;;19.40;5.80;;;5.10;98.30;;;;;;5075835;28;20035;-80
2024/01/28 04:30:17;;;;;;;15.30;5.25;;;5.10;98.40;;;;;;5074541;28;20035;-80
2024/01/28 04:32:46;;;;;;;17.70;5.45;;;5.10;98.40;;;;;;5075566;28;20103;-80
2024/01/28 04:35:12;;;;;;;14.70;4.72;;;5.10;98.50;;;;;;5058823;28;20032;-80
2024/01/28 04:37:39;;;;;;;13.55;4.15;;;5.10;98.60;;;;;;5074841;28;20028;-80
2024/01/28 04:40:06;;;;;;;16.80;5.28;;;5.10;98.60;;;;;;5075930;28;20483;-80
2024/01/28 04:42:32;;;;;;;13.50;5.15;;;5.10;98.60;;;;;;5075876;28;20040;-80
2024/01/28 04:44:58;;;;;;;14.65;5.15;;;5.00;98.60;;;;;;5075179;28;20032;-80
2024/01/28 04:47:23;;;;;;;16.80;6.10;;;5.00;98.70;;;;;;5075471;28;20361;-80
2024/01/28 04:49:49;;;;;;;16.08;4.90;;;5.00;98.70;;;;;;5057563;28;20051;-81
2024/01/28 04:52:14;;;;;;;12.60;4.90;;;5.00;98.70;;;;;;5074112;28;20039;-81
2024/01/28 04:54:40;;;;;;;14.25;4.97;;;4.90;98.80;;;;;;5074055;28;20025;-80
2024/01/28 04:57:06;;;;;;;17.30;5.50;;;4.90;98.80;;;;;;5074944;28;20039;-80
2024/01/28 04:59:31;;;;;;;17.38;5.25;;;4.90;98.90;;;;;;5074309;28;20036;-81
2024/01/28 05:01:57;;;;;;;15.57;4.93;;;4.90;98.90;;;;;;5057318;28;20365;-80
2024/01/28 05:04:23;;;;;;;13.80;4.63;;;4.90;98.90;;;;;;5073597;28;20025;-81
2024/01/28 05:06:48;;;;;;;17.83;5.55;;;4.90;98.90;;;;;;5075410;28;20051;-80
2024/01/28 05:09:16;;;;;;;14.60;4.80;;;4.90;98.80;;;;;;5074854;28;20459;-80
2024/01/28 05:11:42;;;;;;;15.32;4.95;;;4.80;98.80;;;;;;5073989;28;20110;-80
2024/01/28 05:14:08;;;;;;;17.58;5.20;;;4.80;98.80;;;;;;5074702;28;20429;-80
2024/01/28 05:16:33;;;;;;;13.45;4.50;;;4.80;98.80;;;;;;5057619;28;20031;-80
2024/01/28 05:19:01;;;;;;;15.75;4.25;;;4.80;98.80;;;;;;5056911;28;20047;-80
2024/01/28 05:21:27;;;;;;;12.98;4.47;;;4.80;98.80;;;;;;5073296;28;20127;-81
2024/01/28 05:23:53;;;;;;;15.50;4.90;;;4.90;98.80;;;;;;5075335;28;20055;-81
2024/01/28 05:26:18;;;;;;;18.30;5.13;;;4.80;98.80;;;;;;5073877;28;20102;-81
2024/01/28 05:28:47;;;;;;;15.95;4.65;;;4.90;98.80;;;;;;5073444;28;20111;-80
2024/01/28 05:31:12;;;;;;;22.80;4.25;;;4.90;98.80;;;;;;5074150;28;20453;-81
2024/01/28 05:33:39;;;;;;;19.88;5.15;;;4.90;98.80;;;;;;5073488;28;20033;-80
2024/01/28 05:36:12;;;;;;;19.88;5.40;;;5.00;98.60;;;;;;5072994;28;20111;-80
2024/01/28 05:38:38;;;;;;;10.60;4.15;;;4.90;98.60;;;;;;5073927;28;20063;-81
2024/01/28 05:41:05;;;;;;;21.40;5.38;;;4.90;98.70;;;;;;5074651;28;20036;-81
2024/01/28 05:43:30;;;;;;;18.17;5.05;;;4.90;98.70;;;;;;5074436;28;20043;-81
2024/01/28 05:45:56;;;;;;;16.38;5.20;;;4.90;98.60;;;;;;5073465;28;20453;-81
2024/01/28 05:48:22;;;;;;;11.75;4.72;;;4.90;98.70;;;;;;5074257;28;20033;-81
2024/01/28 05:50:47;;;;;;;16.10;5.13;;;5.00;98.50;;;;;;5073633;28;20525;-81
2024/01/28 05:53:13;;;;;;;15.15;4.75;;;5.00;98.50;;;;;;5073347;28;20024;-81
2024/01/28 05:55:38;;;;;;;17.13;4.65;;;5.00;98.60;;;;;;5074607;28;20036;-79
2024/01/28 05:58:04;;;;;;;20.35;4.65;;;5.00;98.50;;;;;;5072316;28;20032;-80
2024/01/28 06:00:30;;;;;;;14.77;4.63;;;4.90;98.40;;;;;;5072937;28;20491;-80
2024/01/28 06:02:55;;;;;;;14.88;4.47;;;4.80;98.50;;;;;;5074071;28;20033;-79
2024/01/28 06:05:21;;;;;;;11.82;4.47;;;4.80;98.60;;;;;;5073910;28;20412;-80
2024/01/28 06:07:47;;;;;;;15.95;4.70;;;4.80;98.60;;;;;;5074230;28;20025;-80
2024/01/28 06:10:13;;;;;;;15.18;4.55;;;4.80;98.60;;;;;;5072525;28;20507;-79
2024/01/28 06:12:38;;;;;;;11.95;4.55;;;4.80;98.50;;;;;;5073889;28;20540;-78
2024/01/28 06:15:08;;;;;;;15.15;4.70;;;4.70;98.60;;;;;;5072691;28;20047;-80
2024/01/28 06:17:36;;;;;;;16.02;4.75;;;4.70;98.80;;;;;;5071839;28;20473;-80
2024/01/28 06:20:05;;;;;;;12.50;4.60;;;4.60;98.80;;;;;;5073631;28;20039;-80
2024/01/28 06:22:32;;;;;;;15.32;4.28;;;4.70;98.90;;;;;;5071977;28;20056;-80
2024/01/28 06:25:01;;;;;;;12.18;4.45;;;4.70;98.90;;;;;;5074065;28;20024;-80
2024/01/28 06:27:27;;;;;;;14.40;4.05;;;4.70;98.80;;;;;;5073611;28;20089;-81
2024/01/28 06:29:54;;;;;;;16.52;4.43;;;4.80;98.70;;;;;;5072727;28;20029;-80
2024/01/28 06:32:21;;;;;;;12.45;3.67;;;4.80;98.60;;;;;;5072985;28;20353;-80
2024/01/28 06:34:47;;;;;;;14.13;4.10;;;4.80;98.60;;;;;;5072553;28;20020;-81
2024/01/28 06:37:13;;;;;;;14.13;4.00;;;4.80;98.50;;;;;;5072462;28;20039;-80
2024/01/28 06:39:39;;;;;;;13.27;3.85;;;4.90;98.60;;;;;;5073119;28;20373;-81
2024/01/28 06:42:04;;;;;;;12.52;3.70;;;4.90;98.60;;;;;;5072442;28;20480;-80
2024/01/28 06:44:32;;;;;;;12.55;4.03;;;4.90;98.60;;;;;;5073852;28;20506;-80
2024/01/28 06:46:58;;;;;;;10.48;3.78;;;4.90;98.40;;;;;;5072235;28;20086;-81
2024/01/28 06:49:25;;;;;;;10.40;3.70;;;4.90;98.30;;;;;;5072210;28;20036;-80
2024/01/28 06:51:51;;;;;;;15.82;4.13;;;4.90;98.30;;;;;;5073458;28;20059;-80
2024/01/28 06:54:19;;;;;;;12.23;3.85;;;4.80;98.30;;;;;;5072222;28;20060;-80
2024/01/28 06:56:45;;;;;;;18.85;4.45;;;4.70;98.60;;;;;;5055685;28;20029;-80
2024/01/28 06:59:11;;;;;;;17.73;4.10;;;4.70;98.60;;;;;;5072044;28;20028;-80
2024/01/28 07:01:37;;;;;;;17.10;4.95;;;4.70;98.70;;;;;;5073651;28;20376;-80
2024/01/28 07:04:02;;;;;;;11.60;3.60;;;4.70;98.80;;;;;;5073671;28;20063;-81
2024/01/28 07:06:28;;;;;;;9.77;3.50;;;4.70;98.70;;;;;;5073069;28;20429;-81
2024/01/28 07:08:54;;;;;;;17.02;4.43;;;4.70;98.70;;;;;;5058014;28;20464;-81
2024/01/28 07:11:19;;;;;;;14.45;4.00;;;4.60;98.80;;;;;;5076197;28;20491;-80
2024/01/28 07:13:45;;;;;;;12.38;3.50;;;4.70;98.80;;;;;;5076038;28;20476;-80
2024/01/28 07:16:12;;;;;;;12.45;3.25;;;4.70;98.80;;;;;;5059293;28;20372;-81
2024/01/28 07:18:39;;;;;;;11.10;3.97;;;4.80;98.70;;;;;;5077212;28;20029;-77
2024/01/28 07:21:05;;;;;;;17.55;4.50;;;4.80;98.60;;;;;;5075299;28;20519;-79
2024/01/28 07:23:31;;;;;;;11.90;3.88;;;4.80;98.50;;;;;;5077306;28;20068;-81
2024/01/28 07:25:57;;;;;;;15.75;4.63;;;4.80;98.50;;;;;;5077408;28;20534;-78
2024/01/28 07:28:22;;;;;;;9.68;4.10;;;4.80;98.50;;;;;;5059052;28;20052;-81
2024/01/28 07:30:48;;;;;;;13.98;4.63;;;4.80;98.50;;;;;;5075359;28;20119;-81
2024/01/28 07:33:15;;;;;;;11.60;3.65;;;4.80;98.40;;;;;;5059719;28;20036;-81
2024/01/28 07:35:41;;;;;;;13.13;3.60;;;4.90;98.50;;;;;;5042736;28;20435;-81
2024/01/28 07:38:09;;;;;;;9.05;3.47;;;5.00;98.30;;;;;;5076993;28;20032;-81
2024/01/28 07:40:34;;;;;;;9.68;3.83;;;5.00;98.20;;;;;;5075437;28;20043;-81
2024/01/28 07:43:00;;;;;;;13.32;3.72;;;4.90;98.20;;;;;;5076792;28;20457;-81
2024/01/28 07:45:26;;;;;;;11.60;4.32;;;4.90;98.20;;;;;;5076437;28;20032;-81
2024/01/28 07:47:57;;;;;;;10.77;3.95;;;4.90;98.10;;;;;;5076984;28;20086;-81
2024/01/28 07:50:23;;;;;;;9.57;3.63;;;4.90;98.20;;;;;;5075728;28;20032;-81
2024/01/28 07:52:49;;;;;;;11.45;3.47;;;4.90;98.20;;;;;;5059079;28;20388;-81
2024/01/28 07:55:14;;;;;;;12.35;3.78;;;4.90;98.30;;;;;;5075882;28;20536;-81
2024/01/28 07:57:40;;;;;;;10.48;3.58;;;4.80;98.30;;;;;;5058368;28;20033;-80
2024/01/28 08:00:09;;;;;;;11.60;3.70;;;4.80;98.30;;;;;;5076182;28;20039;-81
2024/01/28 08:02:35;;;;;;;14.38;4.30;;;4.80;98.40;;;;;;5075677;28;20342;-81
2024/01/28 08:05:01;;;;;;;16.13;4.30;;;4.80;98.50;;;;;;5075981;28;20036;-79
2024/01/28 08:07:26;;;;;;;14.77;3.80;;;4.80;98.50;;;;;;5076375;28;20028;-81
2024/01/28 08:09:52;;;;;;;9.70;3.45;;;4.90;98.60;;;;;;5074993;28;20032;-80
2024/01/28 08:12:18;;;;;;;16.15;3.90;;;4.90;98.50;;;;;;5075317;28;20029;-79
2024/01/28 08:14:44;;;;;;;13.07;3.90;;;5.00;98.50;;;;;;5058521;28;20028;-79
2024/01/28 08:17:10;;;;;;;8.90;3.08;;;5.00;98.50;;;;;;5075563;28;20024;-80
2024/01/28 08:19:37;;;;;;;14.20;4.20;;;5.10;98.30;;;;;;5074428;28;20465;-79
2024/01/28 08:22:03;;;;;;;11.60;3.72;;;5.10;98.30;;;;;;5075791;28;20090;-81
2024/01/28 08:24:28;;;;;;;9.95;3.00;;;5.20;98.30;;;;;;5075997;28;20028;-81
2024/01/28 08:26:54;;;;;;;12.07;3.40;;;5.30;98.20;;;;;;5074984;28;20112;-80
2024/01/28 08:29:20;;;;;;;12.68;3.60;;;5.40;98.30;;;;;;5075144;28;20039;-79
2024/01/28 08:31:45;;;;;;;14.55;3.28;;;5.50;98.70;;;;;;5058255;28;20059;-79
2024/01/28 08:34:11;;;;;;;10.25;3.50;;;5.60;98.60;;;;;;5074959;28;20437;-79
2024/01/28 08:36:37;;;;;;;9.95;2.75;;;5.70;98.90;;;;;;5076498;28;20029;-78
2024/01/28 08:39:04;;;;;;;11.85;3.30;;;5.90;98.70;;;;;;5075622;28;20028;-78
2024/01/28 08:41:30;;;;;;;13.68;3.10;;;5.90;97.90;;;;;;5074781;28;20033;-78
2024/01/28 08:43:56;;;;;;;9.90;2.83;;;6.00;98.10;;;;;;5075343;28;20029;-77
2024/01/28 08:46:21;;;;;;;11.43;3.08;;;6.10;98.00;;;;;;5074849;28;20102;-78
2024/01/28 08:48:47;;;;;;;12.35;3.55;;;6.20;98.00;;;;;;5058976;28;20054;-79
2024/01/28 08:51:13;;;;;;;12.68;3.45;;;6.20;97.50;;;;;;5077764;28;20029;-78
2024/01/28 08:53:38;;;;;;;9.98;3.22;;;6.20;97.30;;;;;;5074617;28;20028;-78
2024/01/28 08:56:04;;;;;;;13.15;3.47;;;6.30;96.90;;;;;;5075995;28;20055;-78
2024/01/28 08:58:30;;;;;;;13.02;3.55;;;6.20;96.80;;;;;;5073953;28;20105;-79
2024/01/28 09:00:56;;;;;;;11.23;3.20;;;6.20;96.70;;;;;;5074284;28;20037;-79
2024/01/28 09:03:22;;;;;;;17.92;3.47;;;6.20;96.60;;;;;;5075689;28;20021;-78
2024/01/28 09:05:48;;;;;;;10.63;2.85;;;6.30;96.60;;;;;;5075707;28;20469;-78
2024/01/28 09:08:14;;;;;;;11.85;2.88;;;6.40;96.60;;;;;;5074189;28;20090;-77
2024/01/28 09:10:39;;;;;;;13.10;2.88;;;6.60;96.70;;;;;;5073971;28;20397;-78
2024/01/28 09:13:05;;;;;;;8.98;3.03;;;6.80;96.50;;;;;;5076243;28;20112;-78
2024/01/28 09:15:30;;;;;;;8.02;2.67;;;7.00;96.20;;;;;;5075710;28;20131;-79
2024/01/28 09:17:56;;;;;;;10.55;2.92;;;7.20;96.00;;;;;;5074642;28;20025;-78
2024/01/28 09:20:22;;;;;;;12.90;3.35;;;7.30;95.70;;;;;;5075307;28;20036;-78
2024/01/28 09:22:48;;;;;;;9.85;3.08;;;7.30;94.90;;;;;;5057275;28;20101;-79
2024/01/28 09:25:14;;;;;;;9.10;2.72;;;7.40;94.80;;;;;;5074875;28;20036;-78
2024/01/28 09:27:39;;;;;;;9.70;2.70;;;7.40;94.80;;;;;;5073865;28;20032;-78
2024/01/28 09:30:06;;;;;;;8.07;2.45;;;7.50;94.30;;;;;;5074939;28;20044;-78
2024/01/28 09:32:32;;;;;;;8.85;2.63;;;7.50;94.10;;;;;;5074331;28;20120;-78
2024/01/28 09:34:58;;;;;;;7.75;3.03;;;7.50;93.80;;;;;;5057292;28;20115;-77
2024/01/28 09:37:23;;;;;;;10.02;2.53;;;7.60;93.70;;;;;;5074608;28;20496;-81
2024/01/28 09:39:49;;;;;;;8.60;2.65;;;7.70;93.80;;;;;;5056828;28;20045;-80
2024/01/28 09:42:28;;;;;;;10.20;3.33;;;7.60;93.10;;;;;;5073542;28;20377;-80
2024/01/28 09:44:54;;;;;;;9.35;2.80;;;7.70;93.00;;;;;;5074221;28;20108;-80
2024/01/28 09:47:20;;;;;;;10.27;2.40;;;7.70;93.00;;;;;;5056485;28;20506;-80
2024/01/28 09:49:49;;;;;;;9.65;2.45;;;7.60;92.90;;;;;;5056354;28;20127;-79
2024/01/28 09:52:16;;;;;;;11.25;2.60;;;7.50;93.00;;;;;;5056873;28;20098;-80
2024/01/28 09:54:42;;;;;;;6.30;2.10;;;7.50;93.00;;;;;;5072891;28;20453;-80
2024/01/28 09:57:08;;;;;;;8.30;1.95;;;7.50;93.00;;;;;;5072795;28;20031;-80
2024/01/28 09:59:36;;;;;;;9.10;2.40;;;7.50;92.90;;;;;;5073193;28;20467;-79
2024/01/28 10:02:06;;;;;;;7.35;2.28;;;7.50;92.80;;;;;;5076375;28;20112;-80
2024/01/28 10:04:34;;;;;;;8.85;2.83;;;7.50;92.80;;;;;;5074423;28;20036;-80
2024/01/28 10:07:02;;;;;;;7.60;2.47;;;7.50;92.90;;;;;;5073349;28;20042;-80
2024/01/28 10:09:28;;;;;;;9.55;2.45;;;7.50;92.90;;;;;;5074249;28;20063;-81
2024/01/28 10:11:57;;;;;;;6.95;2.10;;;7.60;93.80;;;;;;5073591;28;20116;-80
2024/01/28 10:14:23;;;;;;;8.05;2.33;;;7.60;93.70;;;;;;5074429;28;20115;-81
2024/01/28 10:16:49;;;;;;;7.32;2.58;;;7.80;93.60;;;;;;5055963;28;20127;-81
2024/01/28 10:19:15;;;;;;;4.97;2.03;;;7.80;93.40;;;;;;5073960;28;20132;-81
2024/01/28 10:21:43;;;;;;;8.20;2.25;;;8.00;93.50;;;;;;5073896;28;20135;-80
2024/01/28 10:24:10;;;;;;;9.73;2.10;;;8.10;93.50;;;;;;5073864;28;20033;-81
2024/01/28 10:26:36;;;;;;;8.20;2.45;;;8.20;92.90;;;;;;5073658;28;20082;-80
2024/01/28 10:29:02;;;;;;;6.88;2.42;;;8.40;92.50;;;;;;5073911;28;20016;-81
2024/01/28 10:31:28;;;;;;;7.28;2.13;;;8.40;92.20;;;;;;5073518;28;20473;-81
2024/01/28 10:33:54;;;;;;;7.53;2.45;;;8.50;92.00;;;;;;5073025;28;20075;-80
2024/01/28 10:36:21;;;;;;;5.28;1.90;;;8.50;91.80;;;;;;5071832;28;20067;-80
2024/01/28 10:38:48;;;;;;;8.73;2.15;;;8.60;91.70;;;;;;5071950;28;20048;-80
2024/01/28 10:41:17;;;;;;;7.13;2.65;;;8.70;91.70;;;;;;5073587;28;20457;-80
2024/01/28 10:43:57;;;;;;;8.40;2.08;;;8.80;91.50;;;;;;5055538;28;20460;-80
2024/01/28 10:46:41;;;;;;;7.93;2.42;;;9.00;91.40;;;;;;5073163;28;20479;-80
2024/01/28 10:49:08;;;;;;;6.78;2.22;;;9.10;91.10;;;;;;5071623;28;20073;-79
2024/01/28 10:51:39;;;;;;;7.10;1.98;;;9.30;91.10;;;;;;5071844;28;20147;-80
2024/01/28 10:54:09;;;;;;;9.35;2.50;;;9.50;90.80;;;;;;5073404;28;20143;-80
2024/01/28 10:56:39;;;;;;;9.55;2.47;;;9.50;90.00;;;;;;5071775;28;20056;-79
2024/01/28 10:59:05;;;;;;;11.05;2.30;;;9.50;90.00;;;;;;5073185;28;20024;-79
2024/01/28 11:01:32;;;;;;;6.10;2.22;;;9.50;89.00;;;;;;5072925;28;20104;-79
2024/01/28 11:03:58;;;;;;;7.20;2.20;;;9.60;89.80;;;;;;5072734;28;20017;-80
2024/01/28 11:06:29;;;;;;;6.10;2.00;;;9.60;89.80;;;;;;5073404;28;20025;-80
2024/01/28 11:08:55;;;;;;;8.88;1.92;;;9.80;90.20;;;;;;5073297;28;20028;-79
2024/01/28 11:11:21;;;;;;;9.05;2.25;;;9.90;89.70;;;;;;5071970;28;20518;-79
2024/01/28 11:13:47;;;;;;;9.98;2.95;;;10.00;88.70;;;;;;5071815;28;20025;-81
2024/01/28 11:16:15;;;;;;;6.18;2.15;;;10.00;88.60;;;;;;5071926;28;20025;-79
2024/01/28 11:18:56;;;;;;;7.25;1.75;;;10.00;89.00;;;;;;5073261;28;20028;-79
2024/01/28 11:21:22;;;;;;;7.82;2.05;;;10.10;89.10;;;;;;5071506;28;20118;-79
2024/01/28 11:23:48;;;;;;;7.22;2.30;;;10.20;87.80;;;;;;5073663;28;20032;-79
2024/01/28 11:26:18;;;;;;;8.13;2.25;;;10.20;88.70;;;;;;5073139;28;20078;-80
2024/01/28 11:28:53;;;;;;;7.30;2.17;;;10.40;88.00;;;;;;5055193;28;20036;-80
2024/01/28 11:31:33;;;;;;;8.80;2.05;;;10.40;86.90;;;;;;5071675;28;20453;-80
2024/01/28 11:34:19;;;;;;;9.05;2.50;;;10.50;86.40;;;;;;5073138;28;20021;-78
2024/01/28 11:36:51;;;;;;;8.02;2.47;;;10.60;85.80;;;;;;5073274;28;20020;-80
2024/01/28 11:39:22;;;;;;;9.95;2.05;;;10.60;85.90;;;;;;5073025;28;20111;-79
2024/01/28 11:41:51;;;;;;;6.03;2.13;;;10.60;86.70;;;;;;5073372;28;20031;-80
2024/01/28 11:44:17;;;;;;;5.03;2.08;;;10.70;86.70;;;;;;5073086;28;20461;-81
2024/01/28 11:46:44;;;;;;;8.05;2.45;;;10.70;84.50;;;;;;5073423;28;20033;-80
2024/01/28 11:49:09;;;;;;;8.95;2.58;;;10.80;85.00;;;;;;5072918;28;20059;-80
2024/01/28 11:51:35;;;;;;;8.93;2.10;;;10.70;84.90;;;;;;5071985;28;20457;-79
2024/01/28 11:54:03;;;;;;;10.40;2.35;;;10.80;84.90;;;;;;5071660;28;20150;-80
2024/01/28 11:56:33;;;;;;;9.50;2.92;;;10.80;84.00;;;;;;5074545;28;20036;-80
2024/01/28 11:59:01;;;;;;;7.50;2.20;;;10.60;83.80;;;;;;5076306;28;20048;-80
2024/01/28 12:01:27;;;;;;;8.02;2.78;;;10.50;84.40;;;;;;5076728;28;20036;-80
2024/01/28 12:03:54;;;;;;;6.35;2.17;;;10.40;84.60;;;;;;5075241;28;20054;-79
2024/01/28 12:06:22;;;;;;;5.70;1.63;;;10.40;85.10;;;;;;5059180;28;20075;-80
2024/01/28 12:08:48;;;;;;;5.88;1.92;;;10.60;85.20;;;;;;5075600;28;20034;-79
2024/01/28 12:11:16;;;;;;;9.57;2.92;;;10.80;84.80;;;;;;5075805;28;20079;-80
2024/01/28 12:13:43;;;;;;;6.88;2.08;;;10.90;83.50;;;;;;5076405;28;20106;-80
2024/01/28 12:16:09;;;;;;;10.80;2.78;;;10.80;82.70;;;;;;5074342;28;20020;-80
2024/01/28 12:18:40;;;;;;;6.97;2.50;;;10.80;83.50;;;;;;5075070;28;20029;-79
2024/01/28 12:21:20;;;;;;;6.28;2.17;;;11.00;84.00;;;;;;5058444;28;20039;-79
2024/01/28 12:23:52;;;;;;;8.30;2.42;;;11.10;82.20;;;;;;5075651;28;20484;-80
2024/01/28 12:26:18;;;;;;;9.48;2.80;;;10.90;82.50;;;;;;5076107;28;20050;-79
2024/01/28 12:28:46;;;;;;;7.90;2.70;;;10.90;83.40;;;;;;5057729;28;20115;-80
2024/01/28 12:31:12;;;;;;;10.63;3.28;;;10.90;84.20;;;;;;5076013;28;20062;-78
2024/01/28 12:33:38;;;;;;;6.85;2.55;;;11.10;84.00;;;;;;5075923;28;20028;-78
2024/01/28 12:36:04;;;;;;;5.57;2.28;;;11.30;83.90;;;;;;5075538;28;20028;-77
2024/01/28 12:38:29;;;;;;;7.53;2.75;;;11.40;82.30;;;;;;5076112;28;20033;-81
2024/01/28 12:40:56;;;;;;;7.25;2.65;;;11.40;82.00;;;;;;5075564;28;20040;-80
2024/01/28 12:43:21;;;;;;;10.02;2.70;;;11.40;82.40;;;;;;5075219;28;20047;-80
2024/01/28 12:45:48;;;;;;;8.25;2.33;;;11.50;82.40;;;;;;5076013;28;20024;-79